sensor_id;sensor_type;location;lat;lon;timestamp;temperature;humidity
74368;DHT22;64991;41.090;-8.118;2023-05-29T00:01:59;22.40;84.90
74368;DHT22;64991;41.090;-8.118;2023-05-29T00:07:17;22.30;84.70
74368;DHT22;64991;41.090;-8.118;2023-05-29T00:12:21;22.30;84.60
74368;DHT22;64991;41.090;-8.118;2023-05-29T00:17:37;22.30;84.90
74368;DHT22;64991;41.090;-8.118;2023-05-29T00:22:59;22.30;85.00
74368;DHT22;64991;41.090;-8.118;2023-05-29T00:28:31;22.30;84.60
74368;DHT22;64991;41.090;-8.118;2023-05-29T00:33:57;22.30;84.60
74368;DHT22;64991;41.090;-8.118;2023-05-29T00:39:18;22.30;84.50
74368;DHT22;64991;41.090;-8.118;2023-05-29T00:44:39;22.30;84.70
74368;DHT22;64991;41.090;-8.118;2023-05-29T00:50:02;22.20;84.70
74368;DHT22;64991;41.090;-8.118;2023-05-29T00:55:24;22.30;84.70
74368;DHT22;64991;41.090;-8.118;2023-05-29T01:00:46;22.30;84.60
74368;DHT22;64991;41.090;-8.118;2023-05-29T01:12:03;22.30;84.30
74368;DHT22;64991;41.090;-8.118;2023-05-29T01:17:37;22.30;84.40
74368;DHT22;64991;41.090;-8.118;2023-05-29T01:23:25;22.20;84.60
74368;DHT22;64991;41.090;-8.118;2023-05-29T01:28:56;22.30;84.70
74368;DHT22;64991;41.090;-8.118;2023-05-29T01:34:20;22.30;84.50
74368;DHT22;64991;41.090;-8.118;2023-05-29T01:39:41;22.30;84.20
74368;DHT22;64991;41.090;-8.118;2023-05-29T01:45:04;22.30;84.60
74368;DHT22;64991;41.090;-8.118;2023-05-29T01:50:26;22.20;84.40
74368;DHT22;64991;41.090;-8.118;2023-05-29T01:55:48;22.30;84.30
74368;DHT22;64991;41.090;-8.118;2023-05-29T05:40:28;22.20;84.30
74368;DHT22;64991;41.090;-8.118;2023-05-29T05:46:07;22.10;84.20
74368;DHT22;64991;41.090;-8.118;2023-05-29T05:51:47;22.10;84.30
74368;DHT22;64991;41.090;-8.118;2023-05-29T05:57:27;22.10;84.40
74368;DHT22;64991;41.090;-8.118;2023-05-29T06:09:11;22.10;84.50
74368;DHT22;64991;41.090;-8.118;2023-05-29T06:14:50;22.10;84.30
74368;DHT22;64991;41.090;-8.118;2023-05-29T06:20:29;22.20;84.30
74368;DHT22;64991;41.090;-8.118;2023-05-29T06:26:10;22.20;84.40
74368;DHT22;64991;41.090;-8.118;2023-05-29T06:31:49;22.10;84.20
74368;DHT22;64991;41.090;-8.118;2023-05-29T06:37:28;22.20;84.30
74368;DHT22;64991;41.090;-8.118;2023-05-29T06:43:08;22.10;84.30
74368;DHT22;64991;41.090;-8.118;2023-05-29T06:48:47;22.10;84.50
74368;DHT22;64991;41.090;-8.118;2023-05-29T06:54:26;22.10;84.30
74368;DHT22;64991;41.090;-8.118;2023-05-29T07:00:07;22.20;84.20
74368;DHT22;64991;41.090;-8.118;2023-05-29T07:05:47;22.10;84.40
74368;DHT22;64991;41.090;-8.118;2023-05-29T07:11:26;22.10;84.30
74368;DHT22;64991;41.090;-8.118;2023-05-29T07:17:06;22.10;84.40
74368;DHT22;64991;41.090;-8.118;2023-05-29T07:22:46;22.20;84.10
74368;DHT22;64991;41.090;-8.118;2023-05-29T07:28:26;22.20;84.20
74368;DHT22;64991;41.090;-8.118;2023-05-29T07:34:06;22.10;84.20
74368;DHT22;64991;41.090;-8.118;2023-05-29T07:39:46;22.20;84.20
74368;DHT22;64991;41.090;-8.118;2023-05-29T07:45:25;22.20;84.10
74368;DHT22;64991;41.090;-8.118;2023-05-29T07:51:06;22.10;84.20
74368;DHT22;64991;41.090;-8.118;2023-05-29T07:56:45;22.20;84.20
74368;DHT22;64991;41.090;-8.118;2023-05-29T08:02:24;22.10;84.10
74368;DHT22;64991;41.090;-8.118;2023-05-29T08:07:29;22.10;84.40
74368;DHT22;64991;41.090;-8.118;2023-05-29T08:12:34;22.10;84.70
74368;DHT22;64991;41.090;-8.118;2023-05-29T08:17:37;22.20;84.80
74368;DHT22;64991;41.090;-8.118;2023-05-29T08:22:59;22.20;84.80
74368;DHT22;64991;41.090;-8.118;2023-05-29T08:28:20;22.20;85.00
74368;DHT22;64991;41.090;-8.118;2023-05-29T08:33:42;22.20;85.00
74368;DHT22;64991;41.090;-8.118;2023-05-29T08:38:47;22.20;85.20
74368;DHT22;64991;41.090;-8.118;2023-05-29T08:43:50;22.20;85.20
74368;DHT22;64991;41.090;-8.118;2023-05-29T08:49:13;22.30;85.10
74368;DHT22;64991;41.090;-8.118;2023-05-29T08:54:21;22.30;85.00
74368;DHT22;64991;41.090;-8.118;2023-05-29T08:59:25;22.30;84.70
74368;DHT22;64991;41.090;-8.118;2023-05-29T09:04:28;22.20;84.90
74368;DHT22;64991;41.090;-8.118;2023-05-29T09:09:52;22.30;85.10
74368;DHT22;64991;41.090;-8.118;2023-05-29T09:15:17;22.40;84.80
74368;DHT22;64991;41.090;-8.118;2023-05-29T09:20:21;22.40;85.10
74368;DHT22;64991;41.090;-8.118;2023-05-29T09:25:27;22.30;84.90
74368;DHT22;64991;41.090;-8.118;2023-05-29T09:30:36;22.40;85.10
74368;DHT22;64991;41.090;-8.118;2023-05-29T09:35:41;22.40;85.00
74368;DHT22;64991;41.090;-8.118;2023-05-29T09:41:04;22.30;85.10
74368;DHT22;64991;41.090;-8.118;2023-05-29T09:46:08;22.30;85.50
74368;DHT22;64991;41.090;-8.118;2023-05-29T09:51:19;22.40;85.80
74368;DHT22;64991;41.090;-8.118;2023-05-29T09:56:25;22.40;85.40
74368;DHT22;64991;41.090;-8.118;2023-05-29T10:01:29;22.30;84.80
74368;DHT22;64991;41.090;-8.118;2023-05-29T10:06:34;22.50;85.80
74368;DHT22;64991;41.090;-8.118;2023-05-29T10:11:41;22.60;85.80
74368;DHT22;64991;41.090;-8.118;2023-05-29T10:16:46;22.50;85.90
74368;DHT22;64991;41.090;-8.118;2023-05-29T10:21:50;22.50;86.10
74368;DHT22;64991;41.090;-8.118;2023-05-29T10:26:56;22.40;86.10
74368;DHT22;64991;41.090;-8.118;2023-05-29T10:32:20;22.50;86.20
74368;DHT22;64991;41.090;-8.118;2023-05-29T10:37:44;22.50;86.20
74368;DHT22;64991;41.090;-8.118;2023-05-29T10:42:53;22.50;86.20
74368;DHT22;64991;41.090;-8.118;2023-05-29T10:48:39;22.50;86.10
74368;DHT22;64991;41.090;-8.118;2023-05-29T10:54:00;22.50;86.20
74368;DHT22;64991;41.090;-8.118;2023-05-29T10:59:06;22.50;86.30
74368;DHT22;64991;41.090;-8.118;2023-05-29T11:04:29;22.40;86.10
74368;DHT22;64991;41.090;-8.118;2023-05-29T11:09:34;22.40;86.10
74368;DHT22;64991;41.090;-8.118;2023-05-29T11:14:46;22.50;86.10
74368;DHT22;64991;41.090;-8.118;2023-05-29T11:19:51;22.40;86.10
74368;DHT22;64991;41.090;-8.118;2023-05-29T11:24:55;22.40;86.10
74368;DHT22;64991;41.090;-8.118;2023-05-29T11:30:19;22.50;86.10
74368;DHT22;64991;41.090;-8.118;2023-05-29T11:35:23;22.40;86.00
74368;DHT22;64991;41.090;-8.118;2023-05-29T11:40:27;22.50;85.80
74368;DHT22;64991;41.090;-8.118;2023-05-29T11:45:33;22.40;86.00
74368;DHT22;64991;41.090;-8.118;2023-05-29T11:50:37;22.40;85.90
74368;DHT22;64991;41.090;-8.118;2023-05-29T11:55:40;22.40;85.90
74368;DHT22;64991;41.090;-8.118;2023-05-29T12:00:47;22.50;85.80
74368;DHT22;64991;41.090;-8.118;2023-05-29T12:05:52;22.50;86.00
74368;DHT22;64991;41.090;-8.118;2023-05-29T12:10:57;22.50;86.00
74368;DHT22;64991;41.090;-8.118;2023-05-29T12:16:03;22.50;86.00
74368;DHT22;64991;41.090;-8.118;2023-05-29T12:21:07;22.50;85.60
74368;DHT22;64991;41.090;-8.118;2023-05-29T12:26:11;22.40;85.80
74368;DHT22;64991;41.090;-8.118;2023-05-29T12:31:27;22.50;85.90
74368;DHT22;64991;41.090;-8.118;2023-05-29T12:36:31;22.50;85.60
74368;DHT22;64991;41.090;-8.118;2023-05-29T12:41:35;22.40;85.60
74368;DHT22;64991;41.090;-8.118;2023-05-29T12:46:58;22.50;85.50
74368;DHT22;64991;41.090;-8.118;2023-05-29T12:52:20;22.40;85.30
74368;DHT22;64991;41.090;-8.118;2023-05-29T12:57:24;22.50;85.50
74368;DHT22;64991;41.090;-8.118;2023-05-29T13:02:29;22.50;85.40
74368;DHT22;64991;41.090;-8.118;2023-05-29T13:07:32;22.50;85.10
74368;DHT22;64991;41.090;-8.118;2023-05-29T13:12:36;22.50;85.00
74368;DHT22;64991;41.090;-8.118;2023-05-29T13:17:41;22.60;85.20
74368;DHT22;64991;41.090;-8.118;2023-05-29T13:22:45;22.50;85.10
74368;DHT22;64991;41.090;-8.118;2023-05-29T13:27:50;22.50;85.10
74368;DHT22;64991;41.090;-8.118;2023-05-29T13:32:56;22.50;84.90
74368;DHT22;64991;41.090;-8.118;2023-05-29T13:37:59;22.50;85.00
74368;DHT22;64991;41.090;-8.118;2023-05-29T13:43:03;22.50;85.00
74368;DHT22;64991;41.090;-8.118;2023-05-29T13:48:26;22.50;85.00
74368;DHT22;64991;41.090;-8.118;2023-05-29T13:53:30;22.50;85.00
74368;DHT22;64991;41.090;-8.118;2023-05-29T13:58:33;22.50;84.80
74368;DHT22;64991;41.090;-8.118;2023-05-29T14:03:38;22.40;84.90
74368;DHT22;64991;41.090;-8.118;2023-05-29T14:08:44;22.50;84.80
74368;DHT22;64991;41.090;-8.118;2023-05-29T14:13:47;22.50;84.60
74368;DHT22;64991;41.090;-8.118;2023-05-29T14:18:52;22.50;85.00
74368;DHT22;64991;41.090;-8.118;2023-05-29T14:23:56;22.50;84.90
74368;DHT22;64991;41.090;-8.118;2023-05-29T14:29:00;22.40;84.90
74368;DHT22;64991;41.090;-8.118;2023-05-29T14:34:22;22.40;84.90
74368;DHT22;64991;41.090;-8.118;2023-05-29T14:39:26;22.40;84.90
74368;DHT22;64991;41.090;-8.118;2023-05-29T14:44:29;22.40;84.80
74368;DHT22;64991;41.090;-8.118;2023-05-29T14:49:34;22.50;85.10
74368;DHT22;64991;41.090;-8.118;2023-05-29T14:54:38;22.50;85.00
74368;DHT22;64991;41.090;-8.118;2023-05-29T14:59:42;22.40;85.60
74368;DHT22;64991;41.090;-8.118;2023-05-29T15:04:47;22.40;85.20
74368;DHT22;64991;41.090;-8.118;2023-05-29T15:09:51;22.40;85.00
74368;DHT22;64991;41.090;-8.118;2023-05-29T15:14:54;22.40;85.00
74368;DHT22;64991;41.090;-8.118;2023-05-29T15:19:59;22.40;85.30
74368;DHT22;64991;41.090;-8.118;2023-05-29T15:25:05;22.40;85.50
74368;DHT22;64991;41.090;-8.118;2023-05-29T15:30:09;22.40;85.50
74368;DHT22;64991;41.090;-8.118;2023-05-29T15:35:15;22.40;85.60
74368;DHT22;64991;41.090;-8.118;2023-05-29T15:40:19;22.40;85.80
74368;DHT22;64991;41.090;-8.118;2023-05-29T15:45:22;22.40;85.90
74368;DHT22;64991;41.090;-8.118;2023-05-29T15:50:45;22.30;86.40
74368;DHT22;64991;41.090;-8.118;2023-05-29T15:55:49;22.40;86.10
74368;DHT22;64991;41.090;-8.118;2023-05-29T16:00:52;22.40;86.30
74368;DHT22;64991;41.090;-8.118;2023-05-29T16:05:58;22.40;86.70
74368;DHT22;64991;41.090;-8.118;2023-05-29T16:11:02;22.40;87.00
74368;DHT22;64991;41.090;-8.118;2023-05-29T16:21:33;22.40;87.50
74368;DHT22;64991;41.090;-8.118;2023-05-29T16:26:38;22.50;87.70
74368;DHT22;64991;41.090;-8.118;2023-05-29T16:31:41;22.40;87.90
74368;DHT22;64991;41.090;-8.118;2023-05-29T16:54:32;22.50;88.50
74368;DHT22;64991;41.090;-8.118;2023-05-29T16:59:40;22.40;88.70
74368;DHT22;64991;41.090;-8.118;2023-05-29T17:04:45;22.40;89.30
74368;DHT22;64991;41.090;-8.118;2023-05-29T17:09:50;22.50;89.10
74368;DHT22;64991;41.090;-8.118;2023-05-29T17:14:53;22.50;88.00
74368;DHT22;64991;41.090;-8.118;2023-05-29T17:19:58;22.40;87.30
74368;DHT22;64991;41.090;-8.118;2023-05-29T17:25:02;22.50;89.10
74368;DHT22;64991;41.090;-8.118;2023-05-29T17:30:06;22.50;88.70
74368;DHT22;64991;41.090;-8.118;2023-05-29T17:35:12;22.50;89.10
74368;DHT22;64991;41.090;-8.118;2023-05-29T17:40:16;22.40;89.50
74368;DHT22;64991;41.090;-8.118;2023-05-29T17:45:19;22.40;89.80
74368;DHT22;64991;41.090;-8.118;2023-05-29T17:50:42;22.30;90.00
74368;DHT22;64991;41.090;-8.118;2023-05-29T17:55:45;22.20;89.90
74368;DHT22;64991;41.090;-8.118;2023-05-29T18:00:49;22.20;90.00
74368;DHT22;64991;41.090;-8.118;2023-05-29T18:05:54;22.20;89.90
74368;DHT22;64991;41.090;-8.118;2023-05-29T18:10:58;22.20;89.60
74368;DHT22;64991;41.090;-8.118;2023-05-29T18:16:20;22.20;89.50
74368;DHT22;64991;41.090;-8.118;2023-05-29T18:21:25;22.20;89.50
74368;DHT22;64991;41.090;-8.118;2023-05-29T18:26:29;22.20;89.20
74368;DHT22;64991;41.090;-8.118;2023-05-29T18:31:50;22.20;87.70
74368;DHT22;64991;41.090;-8.118;2023-05-29T18:36:55;22.20;87.60
74368;DHT22;64991;41.090;-8.118;2023-05-29T18:41:59;22.20;86.10
74368;DHT22;64991;41.090;-8.118;2023-05-29T18:47:03;22.30;85.10
74368;DHT22;64991;41.090;-8.118;2023-05-29T18:52:09;22.10;85.00
74368;DHT22;64991;41.090;-8.118;2023-05-29T18:57:12;22.20;86.00
74368;DHT22;64991;41.090;-8.118;2023-05-29T19:02:16;22.20;86.80
74368;DHT22;64991;41.090;-8.118;2023-05-29T19:07:21;22.30;87.10
74368;DHT22;64991;41.090;-8.118;2023-05-29T19:12:42;22.30;87.60
74368;DHT22;64991;41.090;-8.118;2023-05-29T19:17:46;22.20;87.80
74368;DHT22;64991;41.090;-8.118;2023-05-29T19:22:51;22.30;87.70
74368;DHT22;64991;41.090;-8.118;2023-05-29T19:27:55;22.20;87.80
74368;DHT22;64991;41.090;-8.118;2023-05-29T19:32:58;22.30;88.20
74368;DHT22;64991;41.090;-8.118;2023-05-29T19:38:20;22.30;88.10
74368;DHT22;64991;41.090;-8.118;2023-05-29T19:43:24;22.30;88.00
74368;DHT22;64991;41.090;-8.118;2023-05-29T19:48:29;22.20;86.20
74368;DHT22;64991;41.090;-8.118;2023-05-29T19:53:39;22.20;86.30
74368;DHT22;64991;41.090;-8.118;2023-05-29T19:58:45;22.20;87.10
74368;DHT22;64991;41.090;-8.118;2023-05-29T20:03:57;22.30;87.60
74368;DHT22;64991;41.090;-8.118;2023-05-29T20:09:03;22.20;87.60
74368;DHT22;64991;41.090;-8.118;2023-05-29T20:14:07;22.20;87.40
74368;DHT22;64991;41.090;-8.118;2023-05-29T20:19:28;22.20;87.80
74368;DHT22;64991;41.090;-8.118;2023-05-29T20:24:33;22.20;87.50
74368;DHT22;64991;41.090;-8.118;2023-05-29T20:29:36;22.20;87.70
74368;DHT22;64991;41.090;-8.118;2023-05-29T20:34:40;22.20;87.50
74368;DHT22;64991;41.090;-8.118;2023-05-29T20:39:45;22.20;87.50
74368;DHT22;64991;41.090;-8.118;2023-05-29T20:44:49;22.10;87.30
74368;DHT22;64991;41.090;-8.118;2023-05-29T20:49:53;22.20;87.60
74368;DHT22;64991;41.090;-8.118;2023-05-29T20:55:16;22.20;87.40
74368;DHT22;64991;41.090;-8.118;2023-05-29T21:00:19;22.20;87.50
74368;DHT22;64991;41.090;-8.118;2023-05-29T21:05:23;22.10;87.00
74368;DHT22;64991;41.090;-8.118;2023-05-29T21:10:29;22.10;87.30
74368;DHT22;64991;41.090;-8.118;2023-05-29T21:15:50;22.10;87.30
74368;DHT22;64991;41.090;-8.118;2023-05-29T21:20:53;22.10;87.40
74368;DHT22;64991;41.090;-8.118;2023-05-29T21:25:59;22.10;86.90
74368;DHT22;64991;41.090;-8.118;2023-05-29T21:31:02;22.10;87.10
74368;DHT22;64991;41.090;-8.118;2023-05-29T21:36:08;22.20;87.00
74368;DHT22;64991;41.090;-8.118;2023-05-29T21:41:14;22.10;87.00
74368;DHT22;64991;41.090;-8.118;2023-05-29T21:46:18;22.10;87.10
74368;DHT22;64991;41.090;-8.118;2023-05-29T21:51:21;22.10;87.00
74368;DHT22;64991;41.090;-8.118;2023-05-29T21:56:27;22.10;86.90
74368;DHT22;64991;41.090;-8.118;2023-05-29T22:01:31;22.20;87.00
74368;DHT22;64991;41.090;-8.118;2023-05-29T22:06:35;22.10;86.80
74368;DHT22;64991;41.090;-8.118;2023-05-29T22:11:40;22.10;86.90
74368;DHT22;64991;41.090;-8.118;2023-05-29T22:16:45;22.10;87.00
74368;DHT22;64991;41.090;-8.118;2023-05-29T22:21:49;22.10;86.90
74368;DHT22;64991;41.090;-8.118;2023-05-29T22:27:13;22.20;86.90
74368;DHT22;64991;41.090;-8.118;2023-05-29T22:32:17;22.10;87.10
74368;DHT22;64991;41.090;-8.118;2023-05-29T22:37:20;22.10;87.00
74368;DHT22;64991;41.090;-8.118;2023-05-29T22:42:43;22.10;87.00
74368;DHT22;64991;41.090;-8.118;2023-05-29T22:47:47;22.10;87.10
74368;DHT22;64991;41.090;-8.118;2023-05-29T22:52:51;22.10;86.80
74368;DHT22;64991;41.090;-8.118;2023-05-29T22:58:13;22.00;87.00
74368;DHT22;64991;41.090;-8.118;2023-05-29T23:03:17;22.10;87.00
74368;DHT22;64991;41.090;-8.118;2023-05-29T23:08:21;22.10;87.10
74368;DHT22;64991;41.090;-8.118;2023-05-29T23:13:26;22.10;86.80
74368;DHT22;64991;41.090;-8.118;2023-05-29T23:18:30;22.10;86.70
74368;DHT22;64991;41.090;-8.118;2023-05-29T23:23:33;22.00;86.90
74368;DHT22;64991;41.090;-8.118;2023-05-29T23:28:38;22.10;86.80
74368;DHT22;64991;41.090;-8.118;2023-05-29T23:33:42;22.00;86.70
74368;DHT22;64991;41.090;-8.118;2023-05-29T23:38:47;22.00;86.90
74368;DHT22;64991;41.090;-8.118;2023-05-29T23:43:52;22.00;86.60
74368;DHT22;64991;41.090;-8.118;2023-05-29T23:48:56;22.10;87.00
74368;DHT22;64991;41.090;-8.118;2023-05-29T23:53:59;22.10;86.80
74368;DHT22;64991;41.090;-8.118;2023-05-29T23:59:05;22.00;86.90
